createdAt,value
2019-01-12T00:00:24.745Z,1012.39
2019-01-12T00:01:23.293Z,1012.51
2019-01-12T00:02:21.839Z,1012.49
2019-01-12T00:03:20.407Z,1012.39
2019-01-12T00:04:18.927Z,1012.32
2019-01-12T00:05:17.487Z,1012.36
2019-01-12T00:06:16.027Z,1012.37
2019-01-12T00:07:15.119Z,1012.41
2019-01-12T00:08:13.763Z,1012.37
2019-01-12T00:09:12.410Z,1012.31
2019-01-12T00:10:10.958Z,1012.21
2019-01-12T00:11:09.502Z,1012.22
2019-01-12T00:12:08.030Z,1012.16
2019-01-12T00:13:06.568Z,1012.21
2019-01-12T00:14:05.148Z,1012.25
2019-01-12T00:15:03.745Z,1012.33
2019-01-12T00:16:02.282Z,1012.34
2019-01-12T00:17:00.822Z,1012.3
2019-01-12T00:17:59.616Z,1012.32
2019-01-12T00:18:58.237Z,1012.33
2019-01-12T00:19:57.071Z,1012.27
2019-01-12T00:20:55.633Z,1012.28
2019-01-12T00:21:54.196Z,1012.34
2019-01-12T00:22:52.849Z,1012.37
2019-01-12T00:23:51.708Z,1012.35
2019-01-12T00:26:31.792Z,1012.34
2019-01-12T00:27:30.332Z,1012.4
2019-01-12T00:28:29.138Z,1012.34
2019-01-12T00:29:27.693Z,1012.38
2019-01-12T00:30:26.255Z,1012.38
2019-01-12T00:31:24.818Z,1012.39
2019-01-12T00:32:23.317Z,1012.43
2019-01-12T00:33:21.901Z,1012.43
2019-01-12T00:34:20.423Z,1012.38
2019-01-12T00:35:19.283Z,1012.42
2019-01-12T00:36:17.826Z,1012.37
2019-01-12T00:37:16.342Z,1012.36
2019-01-12T00:38:14.874Z,1012.32
2019-01-12T00:39:13.664Z,1012.31
2019-01-12T00:40:12.216Z,1012.35
2019-01-12T00:41:10.847Z,1012.36
2019-01-12T00:42:09.417Z,1012.34
2019-01-12T00:43:07.992Z,1012.34
2019-01-12T00:44:06.611Z,1012.37
2019-01-12T00:45:05.435Z,1012.39
2019-01-12T00:46:04.030Z,1012.4
2019-01-12T00:47:02.585Z,1012.42
2019-01-12T00:48:01.356Z,1012.38
2019-01-12T00:48:59.959Z,1012.38
2019-01-12T00:49:58.511Z,1012.37
2019-01-12T00:50:57.058Z,1012.38
2019-01-12T00:51:55.652Z,1012.37
2019-01-12T00:54:29.672Z,1012.31
2019-01-12T00:55:28.204Z,1012.39
2019-01-12T00:56:26.727Z,1012.33
2019-01-12T00:57:25.290Z,1012.4
2019-01-12T00:58:23.853Z,1012.38
2019-01-12T00:59:22.452Z,1012.4
2019-01-12T01:00:21.219Z,1012.46
2019-01-12T01:01:19.923Z,1012.45
2019-01-12T01:02:18.469Z,1012.43
2019-01-12T01:03:17.193Z,1012.44
2019-01-12T01:04:15.759Z,1012.51
2019-01-12T01:05:14.259Z,1012.53
2019-01-12T01:06:12.860Z,1012.46
2019-01-12T01:07:11.366Z,1012.48
2019-01-12T01:08:09.906Z,1012.49
2019-01-12T01:09:08.465Z,1012.49
2019-01-12T01:10:07.052Z,1012.51
2019-01-12T01:11:05.580Z,1012.46
2019-01-12T01:12:04.161Z,1012.46
2019-01-12T01:13:02.713Z,1012.54
2019-01-12T01:14:01.582Z,1012.53
2019-01-12T01:15:00.171Z,1012.58
2019-01-12T01:15:58.706Z,1012.55
2019-01-12T01:16:57.567Z,1012.54
2019-01-12T01:17:56.127Z,1012.52
2019-01-12T01:18:54.728Z,1012.58
2019-01-12T01:19:53.577Z,1012.55
2019-01-12T01:20:52.128Z,1012.54
2019-01-12T01:21:50.696Z,1012.56
2019-01-12T01:22:49.591Z,1012.63
2019-01-12T01:23:48.124Z,1012.63
2019-01-12T01:24:46.669Z,1012.61
2019-01-12T01:25:45.204Z,1012.6
2019-01-12T01:26:43.775Z,1012.64
2019-01-12T01:27:42.320Z,1012.61
2019-01-12T01:28:40.851Z,1012.63
2019-01-12T01:29:39.417Z,1012.64
2019-01-12T01:30:37.961Z,1012.63
2019-01-12T01:31:36.479Z,1012.7
2019-01-12T01:32:35.666Z,1012.68
2019-01-12T01:33:34.225Z,1012.64
2019-01-12T01:34:32.811Z,1012.66
2019-01-12T01:35:31.477Z,1012.68
2019-01-12T01:36:29.943Z,1012.66
2019-01-12T01:37:28.477Z,1012.7
2019-01-12T01:38:27.173Z,1012.66
2019-01-12T01:39:25.801Z,1012.68
2019-01-12T01:40:24.328Z,1012.68
2019-01-12T01:41:22.955Z,1012.64
2019-01-12T01:42:21.732Z,1012.62
2019-01-12T01:43:20.281Z,1012.69
2019-01-12T01:44:18.904Z,1012.65
2019-01-12T01:45:17.540Z,1012.65
2019-01-12T01:46:16.107Z,1012.7
2019-01-12T01:47:14.649Z,1012.7
2019-01-12T01:48:13.438Z,1012.68
2019-01-12T01:49:11.980Z,1012.64
2019-01-12T01:50:10.540Z,1012.65
2019-01-12T01:51:09.551Z,1012.64
2019-01-12T01:52:08.108Z,1012.63
2019-01-12T01:53:06.640Z,1012.64
2019-01-12T01:54:05.211Z,1012.6
2019-01-12T01:55:03.753Z,1012.66
2019-01-12T01:56:02.334Z,1012.67
2019-01-12T01:57:00.890Z,1012.62
2019-01-12T01:57:59.736Z,1012.71
2019-01-12T01:58:58.295Z,1012.69
2019-01-12T01:59:57.188Z,1012.66
2019-01-12T02:00:55.774Z,1012.65
2019-01-12T02:01:54.354Z,1012.59
2019-01-12T02:02:52.888Z,1012.61
2019-01-12T02:03:51.458Z,1012.53
2019-01-12T02:04:50.017Z,1012.55
2019-01-12T02:05:48.609Z,1012.52
2019-01-12T02:06:47.373Z,1012.51
2019-01-12T02:07:46.069Z,1012.52
2019-01-12T02:08:44.681Z,1012.57
2019-01-12T02:09:43.332Z,1012.58
2019-01-12T02:10:41.888Z,1012.53
2019-01-12T02:11:40.423Z,1012.53
2019-01-12T02:12:38.985Z,1012.48
2019-01-12T02:13:37.530Z,1012.48
2019-01-12T02:14:36.072Z,1012.51
2019-01-12T02:15:34.625Z,1012.48
2019-01-12T02:18:14.970Z,1012.51
2019-01-12T02:19:13.764Z,1012.56
2019-01-12T02:20:12.331Z,1012.48
2019-01-12T02:21:10.936Z,1012.54
2019-01-12T02:22:09.476Z,1012.45
2019-01-12T02:23:08.009Z,1012.53
2019-01-12T02:24:06.709Z,1012.47
2019-01-12T02:25:05.514Z,1012.54
2019-01-12T02:26:04.058Z,1012.59
2019-01-12T02:46:18.826Z,1012.45
2019-01-12T02:47:17.359Z,1012.39
2019-01-12T02:48:15.925Z,1012.41
2019-01-12T02:49:14.574Z,1012.39
2019-01-12T02:50:13.272Z,1012.4
2019-01-12T02:51:11.919Z,1012.42
2019-01-12T02:52:10.473Z,1012.39
2019-01-12T02:53:09.366Z,1012.45
2019-01-12T02:54:07.922Z,1012.38
2019-01-12T02:55:08.818Z,1012.39
2019-01-12T02:56:04.993Z,1012.41
2019-01-12T02:57:03.575Z,1012.39
2019-01-12T02:58:02.104Z,1012.42
2019-01-12T03:00:42.239Z,1012.39
2019-01-12T03:01:40.816Z,1012.35
2019-01-12T03:02:39.485Z,1012.35
2019-01-12T03:03:38.180Z,1012.35
2019-01-12T03:04:36.824Z,1012.37
2019-01-12T03:05:35.496Z,1012.34
2019-01-12T03:06:34.070Z,1012.36
2019-01-12T03:07:32.591Z,1012.31
2019-01-12T03:08:31.139Z,1012.33
2019-01-12T03:09:29.705Z,1012.33
2019-01-12T03:10:28.494Z,1012.38
2019-01-12T03:11:27.097Z,1012.34
2019-01-12T03:12:26.008Z,1012.31
2019-01-12T03:13:24.523Z,1012.27
2019-01-12T03:14:23.092Z,1012.29
2019-01-12T03:15:21.671Z,1012.33
2019-01-12T03:16:20.210Z,1012.33
2019-01-12T03:17:18.770Z,1012.34
2019-01-12T03:18:17.310Z,1012.3
2019-01-12T03:19:15.833Z,1012.31
2019-01-12T03:20:14.368Z,1012.28
2019-01-12T03:21:13.004Z,1012.28
2019-01-12T03:22:11.727Z,1012.31
2019-01-12T03:23:10.288Z,1012.27
2019-01-12T03:24:08.819Z,1012.23
2019-01-12T03:25:07.628Z,1012.25
2019-01-12T03:26:06.186Z,1012.32
2019-01-12T03:27:04.787Z,1012.26
2019-01-12T03:28:03.402Z,1012.16
2019-01-12T03:29:01.926Z,1012.24
2019-01-12T03:30:00.483Z,1012.25
2019-01-12T03:30:59.029Z,1012.26
2019-01-12T03:31:57.624Z,1012.25
2019-01-12T03:32:56.805Z,1012.24
2019-01-12T03:33:55.447Z,1012.29
2019-01-12T03:34:53.974Z,1012.3
2019-01-12T03:35:52.503Z,1012.28
2019-01-12T03:36:51.038Z,1012.36
2019-01-12T03:37:49.586Z,1012.28
2019-01-12T03:38:48.282Z,1012.33
2019-01-12T03:39:46.823Z,1012.26
2019-01-12T03:40:45.594Z,1012.29
2019-01-12T03:41:44.116Z,1012.3
2019-01-12T03:42:42.645Z,1012.3
2019-01-12T03:43:41.504Z,1012.34
2019-01-12T03:44:40.068Z,1012.38
2019-01-12T03:45:38.595Z,1012.35
2019-01-12T03:46:37.166Z,1012.34
2019-01-12T03:47:35.714Z,1012.39
2019-01-12T03:48:34.251Z,1012.36
2019-01-12T03:49:32.960Z,1012.38
2019-01-12T03:50:31.521Z,1012.32
2019-01-12T03:51:30.043Z,1012.33
2019-01-12T03:52:28.594Z,1012.34
2019-01-12T03:53:27.255Z,1012.26
2019-01-12T03:54:25.938Z,1012.33
2019-01-12T03:55:25.656Z,1012.31
2019-01-12T03:56:23.321Z,1012.29
2019-01-12T03:57:21.885Z,1012.25
2019-01-12T03:58:20.423Z,1012.24
2019-01-12T03:59:18.949Z,1012.2
2019-01-12T04:00:17.497Z,1012.28
2019-01-12T04:01:16.150Z,1012.24
2019-01-12T04:02:14.680Z,1012.23
2019-01-12T04:03:13.420Z,1012.18
2019-01-12T04:04:12.142Z,1012.23
2019-01-12T04:05:10.678Z,1012.25
2019-01-12T04:06:09.468Z,1012.23
2019-01-12T04:07:08.038Z,1012.21
2019-01-12T04:08:06.677Z,1012.2
2019-01-12T04:09:05.565Z,1012.23
2019-01-12T04:10:04.091Z,1012.2
2019-01-12T04:11:02.641Z,1012.16
2019-01-12T04:12:01.687Z,1012.17
2019-01-12T04:13:00.220Z,1012.18
2019-01-12T04:13:58.772Z,1012.09
2019-01-12T04:14:57.660Z,1012.13
2019-01-12T04:15:56.220Z,1012.13
2019-01-12T04:16:54.797Z,1012.1
2019-01-12T04:17:53.599Z,1012.1
2019-01-12T04:18:52.147Z,1012.1
2019-01-12T04:19:50.683Z,1012.13
2019-01-12T04:20:49.243Z,1012.15
2019-01-12T04:21:47.784Z,1012.1
2019-01-12T04:22:46.343Z,1012.1
2019-01-12T04:23:44.897Z,1012.13
2019-01-12T04:24:43.476Z,1012.08
2019-01-12T04:25:42.025Z,1012.11
2019-01-12T04:26:40.555Z,1012.05
2019-01-12T04:27:39.335Z,1012.05
2019-01-12T04:28:37.963Z,1012.06
2019-01-12T04:29:36.694Z,1012
2019-01-12T04:30:36.009Z,1011.98
2019-01-12T04:31:33.916Z,1012.03
2019-01-12T04:32:32.466Z,1011.99
2019-01-12T04:33:30.973Z,1012.06
2019-01-12T04:34:29.507Z,1011.98
2019-01-12T04:35:28.051Z,1012.03
2019-01-12T04:36:26.571Z,1012.02
2019-01-12T04:37:25.117Z,1012.05
2019-01-12T04:38:23.779Z,1012
2019-01-12T04:39:22.310Z,1012.05
2019-01-12T04:40:21.050Z,1012.05
2019-01-12T04:41:19.902Z,1012.03
2019-01-12T04:42:18.429Z,1012.04
2019-01-12T04:43:17.067Z,1012.09
2019-01-12T04:44:15.601Z,1012.01
2019-01-12T04:45:14.144Z,1012.04
2019-01-12T04:46:12.683Z,1012.05
2019-01-12T04:47:11.218Z,1012.05
2019-01-12T04:48:09.972Z,1012.04
2019-01-12T04:49:08.519Z,1012.05
2019-01-12T04:50:07.214Z,1011.98
2019-01-12T04:51:05.903Z,1012
2019-01-12T04:52:04.435Z,1012.02
2019-01-12T04:53:03.203Z,1012.01
2019-01-12T04:54:01.738Z,1011.93
2019-01-12T04:55:00.269Z,1011.98
2019-01-12T04:55:58.827Z,1012.05
2019-01-12T04:56:57.372Z,1012.04
2019-01-12T04:57:55.908Z,1012.02
2019-01-12T04:58:54.633Z,1011.98
2019-01-12T04:59:53.383Z,1011.95
2019-01-12T05:00:51.954Z,1011.99
2019-01-12T05:01:50.509Z,1012.04
2019-01-12T05:02:49.365Z,1012
2019-01-12T05:03:47.930Z,1012.07
2019-01-12T05:04:46.491Z,1012.05
2019-01-12T05:05:45.036Z,1012.03
2019-01-12T05:06:43.569Z,1012.01
2019-01-12T05:07:42.121Z,1012.02
2019-01-12T05:08:40.659Z,1012.08
2019-01-12T05:09:39.549Z,1012.04
2019-01-12T05:10:38.242Z,1011.99
2019-01-12T05:11:36.770Z,1012.03
2019-01-12T05:12:35.517Z,1011.99
2019-01-12T05:13:34.085Z,1012.02
2019-01-12T05:14:32.608Z,1011.98
2019-01-12T05:15:31.173Z,1011.96
2019-01-12T05:16:29.722Z,1011.97
2019-01-12T05:17:28.286Z,1011.92
2019-01-12T05:18:26.854Z,1011.92
2019-01-12T05:19:25.686Z,1011.92
2019-01-12T05:20:24.209Z,1011.89
2019-01-12T05:21:22.726Z,1011.89
2019-01-12T05:22:21.659Z,1011.88
2019-01-12T05:23:20.225Z,1011.89
2019-01-12T05:24:18.763Z,1011.85
2019-01-12T05:25:17.324Z,1011.92
2019-01-12T05:26:15.868Z,1011.86
2019-01-12T05:27:14.412Z,1011.85
2019-01-12T05:28:13.293Z,1011.81
2019-01-12T05:29:11.914Z,1011.79
2019-01-12T05:30:10.454Z,1011.83
2019-01-12T05:31:09.320Z,1011.79
2019-01-12T05:32:07.864Z,1011.8
2019-01-12T05:33:06.451Z,1011.79
2019-01-12T05:34:05.012Z,1011.81
2019-01-12T05:35:03.555Z,1011.81
2019-01-12T05:36:02.095Z,1011.8
2019-01-12T05:37:00.661Z,1011.81
2019-01-12T05:37:59.545Z,1011.79
2019-01-12T05:38:58.276Z,1011.76
2019-01-12T05:39:56.981Z,1011.76
2019-01-12T05:40:55.553Z,1011.75
2019-01-12T05:41:54.081Z,1011.78
2019-01-12T05:42:52.622Z,1011.82
2019-01-12T05:43:51.171Z,1011.87
2019-01-12T05:44:49.684Z,1011.84
2019-01-12T05:45:48.260Z,1011.82
2019-01-12T05:46:46.816Z,1011.86
2019-01-12T05:47:45.702Z,1011.93
2019-01-12T05:48:44.267Z,1011.83
2019-01-12T05:49:42.815Z,1011.94
2019-01-12T05:50:41.608Z,1011.95
2019-01-12T05:51:40.152Z,1012.01
2019-01-12T05:52:38.693Z,1011.94
2019-01-12T05:53:37.261Z,1011.93
2019-01-12T05:54:35.851Z,1011.91
2019-01-12T05:55:34.432Z,1011.93
2019-01-12T05:56:32.973Z,1011.92
2019-01-12T05:57:31.767Z,1011.97
2019-01-12T05:58:30.304Z,1011.89
2019-01-12T05:59:28.854Z,1011.92
2019-01-12T06:00:27.627Z,1011.85
2019-01-12T06:01:26.443Z,1011.87
2019-01-12T06:02:24.989Z,1011.86
2019-01-12T06:03:23.812Z,1011.9
2019-01-12T06:04:22.371Z,1011.92
2019-01-12T06:05:20.934Z,1011.9
2019-01-12T06:06:19.782Z,1011.86
2019-01-12T06:07:18.333Z,1011.86
2019-01-12T06:08:16.927Z,1011.89
2019-01-12T06:09:15.481Z,1011.93
2019-01-12T06:10:14.780Z,1011.89
2019-01-12T06:11:12.590Z,1011.87
2019-01-12T06:12:11.188Z,1011.9
2019-01-12T06:13:09.923Z,1011.87
2019-01-12T06:14:08.449Z,1011.85
2019-01-12T06:15:07.107Z,1011.87
2019-01-12T06:16:06.008Z,1011.85
2019-01-12T06:17:04.508Z,1011.85
2019-01-12T06:18:03.087Z,1011.85
2019-01-12T06:19:01.651Z,1011.8
2019-01-12T06:20:00.238Z,1011.78
2019-01-12T06:20:58.714Z,1011.84
2019-01-12T06:21:57.271Z,1011.89
2019-01-12T06:22:55.808Z,1011.83
2019-01-12T06:23:54.352Z,1011.9
2019-01-12T06:24:52.855Z,1011.95
2019-01-12T06:25:51.505Z,1011.88
2019-01-12T06:26:50.150Z,1011.89
2019-01-12T06:27:48.744Z,1011.89
2019-01-12T06:28:47.359Z,1011.86
2019-01-12T06:29:46.058Z,1011.78
2019-01-12T06:30:44.756Z,1011.86
2019-01-12T06:31:43.319Z,1011.85
2019-01-12T06:32:41.873Z,1011.87
2019-01-12T06:33:40.399Z,1011.88
2019-01-12T06:34:38.952Z,1011.85
2019-01-12T06:35:37.538Z,1011.83
2019-01-12T06:36:36.109Z,1011.88
2019-01-12T06:37:34.637Z,1011.9
2019-01-12T06:38:33.486Z,1011.91
2019-01-12T06:39:32.133Z,1011.85
2019-01-12T06:40:30.677Z,1011.92
2019-01-12T06:41:29.484Z,1011.93
2019-01-12T06:42:27.995Z,1011.91
2019-01-12T06:43:26.552Z,1011.9
2019-01-12T06:44:25.069Z,1011.92
2019-01-12T06:45:23.608Z,1011.91
2019-01-12T06:46:22.116Z,1011.91
2019-01-12T06:47:20.655Z,1011.96
2019-01-12T06:48:19.196Z,1011.92
2019-01-12T06:49:17.975Z,1011.97
2019-01-12T06:50:16.499Z,1011.95
2019-01-12T06:51:15.170Z,1012
2019-01-12T06:52:14.048Z,1011.97
2019-01-12T06:53:12.629Z,1011.92
2019-01-12T06:54:11.180Z,1011.95
2019-01-12T06:55:09.744Z,1011.99
2019-01-12T06:56:10.885Z,1012
2019-01-12T06:57:06.826Z,1011.91
2019-01-12T06:58:05.369Z,1011.97
2019-01-12T06:59:03.907Z,1011.99
2019-01-12T07:00:02.455Z,1011.98
2019-01-12T07:01:01.008Z,1011.95
2019-01-12T07:01:59.671Z,1011.99
2019-01-12T07:02:58.357Z,1012.05
2019-01-12T07:03:56.899Z,1012
2019-01-12T07:04:55.851Z,1012
2019-01-12T07:05:54.360Z,1012.02
2019-01-12T07:06:52.929Z,1011.97
2019-01-12T07:07:51.461Z,1012
2019-01-12T07:08:50.097Z,1011.98
2019-01-12T07:09:48.641Z,1011.92
2019-01-12T07:10:47.689Z,1011.97
2019-01-12T07:11:46.221Z,1011.89
2019-01-12T07:12:44.880Z,1011.98
2019-01-12T07:13:43.512Z,1011.97
2019-01-12T07:14:42.025Z,1011.95
2019-01-12T07:15:40.708Z,1011.98
2019-01-12T07:16:39.257Z,1011.97
2019-01-12T07:17:37.772Z,1011.97
2019-01-12T07:18:36.366Z,1011.98
2019-01-12T07:19:34.862Z,1011.96
2019-01-12T07:20:33.632Z,1011.96
2019-01-12T07:21:32.209Z,1011.92
2019-01-12T07:22:30.890Z,1011.96
2019-01-12T07:23:29.660Z,1011.92
2019-01-12T07:24:28.246Z,1011.99
2019-01-12T07:25:26.803Z,1011.97
2019-01-12T07:26:25.341Z,1011.94
2019-01-12T07:27:23.876Z,1011.99
2019-01-12T07:28:22.412Z,1012.06
2019-01-12T07:29:20.950Z,1012.05
2019-01-12T07:30:19.825Z,1012.09
2019-01-12T07:31:18.389Z,1012.06
2019-01-12T07:32:17.024Z,1012.07
2019-01-12T07:33:15.814Z,1012.08
2019-01-12T07:34:14.384Z,1012.09
2019-01-12T07:35:12.948Z,1012.07
2019-01-12T07:36:11.470Z,1012.09
2019-01-12T07:37:10.064Z,1012.11
2019-01-12T07:38:08.659Z,1012.11
2019-01-12T07:39:07.718Z,1012.16
2019-01-12T07:40:06.076Z,1012.13
2019-01-12T07:41:04.608Z,1012.14
2019-01-12T07:42:03.411Z,1012.2
2019-01-12T07:43:01.961Z,1012.17
2019-01-12T07:44:00.520Z,1012.23
2019-01-12T07:44:59.048Z,1012.22
2019-01-12T07:45:57.632Z,1012.24
2019-01-12T07:46:56.148Z,1012.26
2019-01-12T07:47:54.718Z,1012.29
2019-01-12T07:48:53.362Z,1012.29
2019-01-12T07:51:33.778Z,1012.31
2019-01-12T07:52:32.335Z,1012.28
2019-01-12T07:53:30.898Z,1012.31
2019-01-12T07:54:29.599Z,1012.33
2019-01-12T07:55:28.165Z,1012.33
2019-01-12T07:56:26.742Z,1012.32
2019-01-12T07:57:25.467Z,1012.33
2019-01-12T07:58:24.053Z,1012.39
2019-01-12T07:59:22.599Z,1012.38
2019-01-12T08:00:21.234Z,1012.39
2019-01-12T08:01:20.000Z,1012.36
2019-01-12T08:02:18.595Z,1012.33
2019-01-12T08:03:17.791Z,1012.39
2019-01-12T08:04:16.382Z,1012.4
2019-01-12T08:05:15.011Z,1012.36
2019-01-12T08:06:13.816Z,1012.41
2019-01-12T08:07:12.386Z,1012.39
2019-01-12T08:08:11.124Z,1012.34
2019-01-12T08:10:34.682Z,1012.29
2019-01-12T08:11:33.230Z,1012.29
2019-01-12T08:12:31.995Z,1012.31
2019-01-12T08:13:30.533Z,1012.27
2019-01-12T08:14:29.139Z,1012.33
2019-01-12T08:15:27.693Z,1012.25
2019-01-12T08:16:26.313Z,1012.28
2019-01-12T08:17:24.858Z,1012.23
2019-01-12T08:18:23.389Z,1012.26
2019-01-12T08:19:21.937Z,1012.26
2019-01-12T08:20:20.474Z,1012.29
2019-01-12T08:21:19.471Z,1012.26
2019-01-12T08:22:18.082Z,1012.25
2019-01-12T08:23:16.661Z,1012.27
2019-01-12T08:24:15.409Z,1012.25
2019-01-12T08:25:13.967Z,1012.32
2019-01-12T08:26:12.485Z,1012.26
2019-01-12T08:27:11.925Z,1012.29
2019-01-12T08:28:10.519Z,1012.34
2019-01-12T08:29:09.054Z,1012.3
2019-01-12T08:30:07.597Z,1012.35
2019-01-12T08:31:06.175Z,1012.36
2019-01-12T08:32:04.737Z,1012.36
2019-01-12T08:33:03.496Z,1012.26
2019-01-12T08:34:02.200Z,1012.3
2019-01-12T08:35:00.929Z,1012.33
2019-01-12T08:35:59.527Z,1012.36
2019-01-12T08:36:58.064Z,1012.33
2019-01-12T08:37:56.617Z,1012.33
2019-01-12T08:38:55.151Z,1012.43
2019-01-12T08:41:39.504Z,1012.34
2019-01-12T08:42:38.244Z,1012.37
2019-01-12T08:43:36.786Z,1012.29
2019-01-12T08:44:35.474Z,1012.26
2019-01-12T08:45:34.042Z,1012.3
2019-01-12T08:46:32.628Z,1012.32
2019-01-12T08:47:31.176Z,1012.31
2019-01-12T08:48:29.792Z,1012.32
2019-01-12T08:49:28.340Z,1012.31
2019-01-12T09:10:00.173Z,1012.06
2019-01-12T09:10:58.698Z,1012.05
2019-01-12T09:11:57.409Z,1011.95
2019-01-12T09:12:57.059Z,1012.01
2019-01-12T09:13:55.872Z,1012.05
2019-01-12T09:14:54.475Z,1012.07
2019-01-12T09:15:53.032Z,1011.97
2019-01-12T09:19:31.954Z,1012.08
2019-01-12T09:20:30.504Z,1012.14
2019-01-12T09:21:29.038Z,1012.03
2019-01-12T09:22:27.693Z,1012.06
2019-01-12T09:23:26.256Z,1012.02
2019-01-12T09:24:24.797Z,1012
2019-01-12T09:25:23.438Z,1012.06
2019-01-12T09:26:21.981Z,1011.99
2019-01-12T09:27:20.517Z,1012.01
2019-01-12T09:28:19.077Z,1012.05
2019-01-12T09:29:17.630Z,1012
2019-01-12T09:30:16.204Z,1012.01
2019-01-12T09:31:14.780Z,1012.01
2019-01-12T09:32:13.647Z,1011.98
2019-01-12T09:33:12.371Z,1011.95
2019-01-12T09:34:11.092Z,1011.91
2019-01-12T09:35:09.637Z,1011.98
2019-01-12T09:36:08.205Z,1011.98
2019-01-12T09:37:06.816Z,1012
2019-01-12T09:38:05.346Z,1011.99
2019-01-12T09:39:04.054Z,1011.99
2019-01-12T09:40:02.715Z,1012.01
2019-01-12T09:41:02.280Z,1012.03
2019-01-12T09:42:00.852Z,1012.07
2019-01-12T09:42:59.730Z,1012.06
2019-01-12T09:43:58.348Z,1012.05
2019-01-12T09:44:56.890Z,1012.02
2019-01-12T09:47:36.890Z,1012.09
2019-01-12T09:48:35.788Z,1012.04
2019-01-12T09:49:34.341Z,1012.02
2019-01-12T09:50:32.918Z,1012.01
2019-01-12T09:51:31.766Z,1011.99
2019-01-12T09:52:30.494Z,1012
2019-01-12T09:53:29.366Z,1011.9
2019-01-12T09:56:09.738Z,1011.88
2019-01-12T09:57:08.305Z,1011.88
2019-01-12T09:58:06.806Z,1011.83
2019-01-12T09:59:05.610Z,1011.73
2019-01-12T10:00:04.247Z,1011.66
2019-01-12T10:01:02.811Z,1011.51
2019-01-12T10:02:01.806Z,1011.52
2019-01-12T10:03:00.356Z,1011.6
2019-01-12T10:03:58.867Z,1011.56
2019-01-12T10:04:57.429Z,1011.54
2019-01-12T10:05:56.041Z,1011.49
2019-01-12T10:06:54.589Z,1011.52
2019-01-12T10:07:53.383Z,1011.43
2019-01-12T10:08:52.158Z,1011.39
2019-01-12T10:09:50.774Z,1011.34
2019-01-12T10:10:49.543Z,1011.28
2019-01-12T10:11:48.157Z,1011.22
2019-01-12T10:12:46.731Z,1011.25
2019-01-12T10:13:45.979Z,1011.21
2019-01-12T10:14:45.496Z,1011.15
2019-01-12T10:15:44.064Z,1011.23
2019-01-12T10:16:42.637Z,1011.27
2019-01-12T10:17:41.148Z,1011.27
2019-01-12T10:18:39.745Z,1011.24
2019-01-12T10:19:38.324Z,1011.22
2019-01-12T10:20:36.909Z,1011.22
2019-01-12T10:21:35.804Z,1011.14
2019-01-12T10:22:34.412Z,1011.17
2019-01-12T10:23:33.121Z,1011.18
2019-01-12T10:24:31.799Z,1011.14
2019-01-12T10:25:30.362Z,1011.17
2019-01-12T10:26:28.989Z,1011.1
2019-01-12T10:27:27.802Z,1011.14
2019-01-12T10:28:26.377Z,1011.12
2019-01-12T10:29:25.238Z,1011.14
2019-01-12T10:30:24.441Z,1011.05
2019-01-12T10:31:24.207Z,1011.04
2019-01-12T10:32:22.750Z,1010.97
2019-01-12T10:36:02.088Z,1010.86
2019-01-12T10:37:00.550Z,1010.79
2019-01-12T10:37:59.235Z,1010.78
2019-01-12T10:38:57.823Z,1010.77
2019-01-12T10:39:56.413Z,1010.79
2019-01-12T10:42:55.786Z,1010.71
2019-01-12T10:43:54.392Z,1010.59
2019-01-12T10:46:34.649Z,1010.72
2019-01-12T10:48:42.373Z,1010.72
2019-01-12T10:49:40.905Z,1010.72
2019-01-12T10:52:21.110Z,1010.7
2019-01-12T10:53:19.969Z,1010.72
2019-01-12T10:54:19.170Z,1010.72
2019-01-12T10:55:17.883Z,1010.65
2019-01-12T10:56:16.474Z,1010.67
2019-01-12T10:57:15.084Z,1010.59
2019-01-12T10:58:13.980Z,1010.64
2019-01-12T10:59:12.550Z,1010.58
2019-01-12T11:00:11.062Z,1010.51
2019-01-12T11:20:29.888Z,1010.57
2019-01-12T11:21:28.435Z,1010.52
2019-01-12T11:22:27.570Z,1010.44
2019-01-12T11:23:26.118Z,1010.38
2019-01-12T11:24:24.674Z,1010.41
2019-01-12T11:25:23.299Z,1010.45
2019-01-12T11:26:21.952Z,1010.42
2019-01-12T11:27:20.524Z,1010.37
2019-01-12T11:28:19.437Z,1010.3
2019-01-12T11:29:18.113Z,1010.24
2019-01-12T11:30:16.668Z,1010.17
2019-01-12T11:31:19.720Z,1010.17
2019-01-12T11:32:13.924Z,1010.13
2019-01-12T11:33:12.580Z,1010.1
2019-01-12T11:34:11.236Z,1010.1
2019-01-12T11:35:09.869Z,1010.07
2019-01-12T11:36:08.421Z,1010
2019-01-12T11:37:06.947Z,1009.93
2019-01-12T11:38:05.921Z,1009.84
2019-01-12T11:39:04.526Z,1009.83
2019-01-12T11:40:03.854Z,1009.8
2019-01-12T11:41:02.558Z,1009.8
2019-01-12T11:42:01.124Z,1009.79
2019-01-12T11:42:59.906Z,1009.74
2019-01-12T11:43:58.469Z,1009.63
2019-01-12T11:44:56.991Z,1009.61
2019-01-12T11:45:56.035Z,1009.57
2019-01-12T11:46:55.403Z,1009.55
2019-01-12T11:47:54.167Z,1009.48
2019-01-12T11:48:52.704Z,1009.46
2019-01-12T11:49:51.583Z,1009.46
2019-01-12T11:50:50.276Z,1009.46
2019-01-12T11:51:48.917Z,1009.43
2019-01-12T11:52:47.551Z,1009.38
2019-01-12T11:53:46.098Z,1009.41
2019-01-12T11:54:45.133Z,1009.43
2019-01-12T11:55:43.748Z,1009.38
2019-01-12T11:56:42.357Z,1009.3
2019-01-12T11:57:41.088Z,1009.24
2019-01-12T11:58:39.642Z,1009.3
2019-01-12T11:59:38.358Z,1009.3
2019-01-12T12:00:36.877Z,1009.24
2019-01-12T12:01:35.728Z,1009.31
2019-01-12T12:02:37.761Z,1009.32
2019-01-12T12:03:33.182Z,1009.34
2019-01-12T12:04:33.137Z,1009.37
2019-01-12T12:05:30.289Z,1009.31
2019-01-12T12:06:28.821Z,1009.29
2019-01-12T12:07:27.348Z,1009.27
2019-01-12T12:08:25.928Z,1009.33
2019-01-12T12:09:24.685Z,1009.43
2019-01-12T12:10:23.038Z,1009.42
2019-01-12T12:11:21.876Z,1009.38
2019-01-12T12:12:20.434Z,1009.4
2019-01-12T12:13:18.986Z,1009.38
2019-01-12T12:14:17.830Z,1009.42
2019-01-12T12:15:16.396Z,1009.42
2019-01-12T12:16:14.950Z,1009.4
2019-01-12T12:17:13.504Z,1009.39
2019-01-12T12:18:12.070Z,1009.33
2019-01-12T12:19:10.585Z,1009.33
2019-01-12T12:20:09.114Z,1009.37
2019-01-12T12:21:07.638Z,1009.37
2019-01-12T12:22:06.442Z,1009.36
2019-01-12T12:23:04.989Z,1009.35
2019-01-12T12:24:03.801Z,1009.34
2019-01-12T12:26:47.919Z,1009.36
2019-01-12T12:27:46.562Z,1009.38
2019-01-12T12:28:45.122Z,1009.29
2019-01-12T12:31:25.490Z,1009.38
2019-01-12T12:32:24.124Z,1009.42
2019-01-12T12:33:22.648Z,1009.39
2019-01-12T12:34:21.430Z,1009.4
2019-01-12T12:35:19.967Z,1009.38
2019-01-12T12:36:18.529Z,1009.39
2019-01-12T12:37:17.228Z,1009.38
2019-01-12T12:38:15.975Z,1009.31
2019-01-12T12:39:14.536Z,1009.34
2019-01-12T12:40:13.194Z,1009.29
2019-01-12T12:41:12.085Z,1009.22
2019-01-12T12:42:10.641Z,1009.22
2019-01-12T12:43:09.159Z,1009.2
2019-01-12T12:44:07.704Z,1009.17
2019-01-12T12:45:06.240Z,1009.14
2019-01-12T12:46:04.755Z,1009.17
2019-01-12T12:47:03.272Z,1009.2
2019-01-12T12:48:02.037Z,1009.22
2019-01-12T12:49:00.623Z,1009.19
2019-01-12T12:49:59.209Z,1009.14
2019-01-12T12:51:00.135Z,1009.11
2019-01-12T12:51:58.635Z,1009.04
2019-01-12T12:52:57.196Z,1009.08
2019-01-12T12:53:55.763Z,1009.03
2019-01-12T12:54:54.262Z,1009.11
2019-01-12T12:55:52.810Z,1009.06
2019-01-12T12:56:51.321Z,1008.98
2019-01-12T12:57:49.881Z,1008.96
2019-01-12T12:58:48.448Z,1008.98
2019-01-12T12:59:47.030Z,1008.94
2019-01-12T13:00:45.968Z,1008.92
2019-01-12T13:01:44.755Z,1008.92
2019-01-12T13:02:43.596Z,1008.9
2019-01-12T13:03:42.232Z,1008.92
2019-01-12T13:04:40.766Z,1008.93
2019-01-12T13:05:39.492Z,1008.83
2019-01-12T13:06:38.527Z,1008.84
2019-01-12T13:07:37.065Z,1008.89
2019-01-12T13:08:35.909Z,1008.91
2019-01-12T13:09:34.416Z,1008.93
2019-01-12T13:10:33.019Z,1008.89
2019-01-12T13:11:31.843Z,1008.89
2019-01-12T13:14:11.887Z,1008.9
2019-01-12T13:15:10.739Z,1008.86
2019-01-12T13:16:08.940Z,1008.75
2019-01-12T13:17:07.529Z,1008.82
2019-01-12T13:18:06.137Z,1008.77
2019-01-12T13:19:04.762Z,1008.81
2019-01-12T13:20:03.567Z,1008.8
2019-01-12T13:21:02.317Z,1008.74
2019-01-12T13:22:00.825Z,1008.6